createdAt,value
2023-03-07T00:01:48.064Z,24.50
2023-03-07T00:04:53.647Z,22.30
2023-03-07T00:07:55.769Z,24.38
2023-03-07T00:11:02.231Z,23.67
2023-03-07T00:14:08.396Z,24.63
2023-03-07T00:17:10.530Z,23.70
2023-03-07T00:20:15.082Z,24.35
2023-03-07T00:23:17.176Z,23.73
2023-03-07T00:26:21.616Z,24.10
2023-03-07T00:29:23.876Z,25.23
2023-03-07T00:32:27.100Z,24.83
2023-03-07T00:35:29.354Z,24.92
2023-03-07T00:38:32.262Z,24.23
2023-03-07T00:41:34.962Z,23.40
2023-03-07T00:44:37.202Z,23.88
2023-03-07T00:47:39.379Z,23.45
2023-03-07T00:50:41.527Z,23.65
2023-03-07T00:53:44.037Z,25.23
2023-03-07T00:56:46.465Z,23.38
2023-03-07T00:59:48.742Z,25.13
2023-03-07T01:02:51.666Z,24.20
2023-03-07T01:05:55.034Z,24.40
2023-03-07T01:09:00.496Z,24.65
2023-03-07T01:12:07.232Z,24.20
2023-03-07T01:15:10.113Z,22.65
2023-03-07T01:18:13.754Z,24.50
2023-03-07T01:21:36.465Z,24.75
2023-03-07T01:24:39.880Z,23.77
2023-03-07T01:27:42.150Z,23.98
2023-03-07T01:30:44.607Z,24.27
2023-03-07T01:33:51.445Z,24.52
2023-03-07T01:36:54.561Z,24.40
2023-03-07T01:39:56.890Z,24.42
2023-03-07T01:43:22.242Z,24.75
2023-03-07T01:46:45.253Z,24.25
2023-03-07T01:49:48.406Z,24.85
2023-03-07T01:53:00.431Z,25.35
2023-03-07T01:56:02.710Z,24.02
2023-03-07T01:59:06.799Z,27.15
2023-03-07T02:02:14.621Z,25.02
2023-03-07T02:05:26.499Z,25.60
2023-03-07T02:08:31.473Z,24.85
2023-03-07T02:11:34.923Z,26.65
2023-03-07T02:14:38.319Z,24.88
2023-03-07T02:17:42.210Z,24.45
2023-03-07T02:21:05.948Z,25.55
2023-03-07T02:24:13.716Z,25.08
2023-03-07T02:27:16.282Z,25.67
2023-03-07T02:30:19.440Z,25.90
2023-03-07T02:33:25.395Z,25.75
2023-03-07T02:36:35.921Z,24.83
2023-03-07T02:39:53.454Z,26.17
2023-03-07T02:42:59.530Z,26.00
2023-03-07T02:46:01.891Z,26.58
2023-03-07T02:49:04.013Z,25.98
2023-03-07T02:52:07.441Z,25.50
2023-03-07T02:55:10.429Z,26.48
2023-03-07T02:58:17.300Z,26.30
2023-03-07T03:01:19.646Z,25.73
2023-03-07T03:04:21.911Z,26.23
2023-03-07T03:07:24.003Z,26.77
2023-03-07T03:10:26.304Z,26.45
2023-03-07T03:13:28.974Z,26.55
2023-03-07T03:16:32.200Z,24.92
2023-03-07T03:19:35.112Z,25.88
2023-03-07T03:22:37.939Z,28.10
2023-03-07T03:25:41.425Z,26.23
2023-03-07T03:28:44.424Z,25.85
2023-03-07T03:31:46.603Z,27.58
2023-03-07T03:34:48.774Z,26.77
2023-03-07T03:37:50.985Z,25.95
2023-03-07T03:40:53.164Z,26.33
2023-03-07T03:43:55.578Z,25.98
2023-03-07T03:46:58.013Z,27.65
2023-03-07T03:50:00.892Z,27.45
2023-03-07T03:53:03.917Z,25.88
2023-03-07T03:56:12.463Z,25.73
2023-03-07T03:59:14.853Z,26.77
2023-03-07T04:02:17.253Z,26.20
2023-03-07T04:05:19.694Z,26.02
2023-03-07T04:08:22.319Z,26.50
2023-03-07T04:11:25.543Z,26.98
2023-03-07T04:14:27.722Z,28.60
2023-03-07T04:17:29.963Z,26.40
2023-03-07T04:20:32.305Z,26.85
2023-03-07T04:23:34.943Z,27.15
2023-03-07T04:26:37.352Z,26.92
2023-03-07T04:29:39.562Z,27.48
2023-03-07T04:32:50.682Z,27.58
2023-03-07T04:35:52.850Z,25.45
2023-03-07T04:38:55.230Z,26.23
2023-03-07T04:41:57.823Z,26.83
2023-03-07T04:45:00.571Z,28.30
2023-03-07T04:48:03.372Z,27.75
2023-03-07T04:51:07.317Z,27.40
2023-03-07T04:54:09.762Z,27.00
2023-03-07T04:57:12.788Z,27.25
2023-03-07T05:00:16.100Z,27.65
2023-03-07T05:03:18.754Z,26.48
2023-03-07T05:06:21.055Z,27.20
2023-03-07T05:09:25.739Z,26.52
2023-03-07T05:12:28.085Z,26.15
2023-03-07T05:15:32.139Z,27.30
2023-03-07T05:18:34.901Z,26.95
2023-03-07T05:21:40.025Z,26.65
2023-03-07T05:24:42.637Z,26.05
2023-03-07T05:27:44.922Z,26.90
2023-03-07T05:30:47.392Z,26.23
2023-03-07T05:33:49.744Z,27.10
2023-03-07T05:36:52.085Z,27.23
2023-03-07T05:39:54.601Z,26.52
2023-03-07T05:42:57.115Z,28.95
2023-03-07T05:45:59.700Z,27.45
2023-03-07T05:49:02.365Z,26.98
2023-03-07T05:52:04.765Z,27.90
2023-03-07T05:55:08.038Z,27.90
2023-03-07T05:58:10.295Z,28.45
2023-03-07T06:01:12.612Z,29.80
2023-03-07T06:04:15.461Z,28.63
2023-03-07T06:07:17.661Z,28.95
2023-03-07T06:10:21.238Z,29.02
2023-03-07T06:13:25.319Z,27.83
2023-03-07T06:16:27.545Z,27.13
2023-03-07T06:19:30.113Z,29.35
2023-03-07T06:22:34.630Z,28.88
2023-03-07T06:25:38.017Z,29.77
2023-03-07T06:28:41.211Z,29.88
2023-03-07T06:31:43.651Z,30.15
2023-03-07T06:34:46.290Z,26.50
2023-03-07T06:37:50.427Z,29.48
2023-03-07T06:40:56.964Z,30.17
2023-03-07T06:43:59.538Z,30.85
2023-03-07T06:47:05.771Z,29.40
2023-03-07T06:50:08.871Z,27.88
2023-03-07T06:53:12.126Z,29.50
2023-03-07T06:56:14.553Z,29.02
2023-03-07T06:59:18.041Z,29.10
2023-03-07T07:02:21.927Z,29.60
2023-03-07T07:05:24.201Z,31.08
2023-03-07T07:08:26.620Z,30.27
2023-03-07T07:11:31.369Z,26.38
2023-03-07T07:14:35.020Z,27.05
2023-03-07T07:17:40.272Z,29.73
2023-03-07T07:20:43.280Z,27.95
2023-03-07T07:23:45.804Z,30.33
2023-03-07T07:26:48.111Z,31.38
2023-03-07T07:29:50.399Z,30.25
2023-03-07T07:32:52.858Z,31.35
2023-03-07T07:35:57.241Z,29.38
2023-03-07T07:38:59.505Z,30.83
2023-03-07T07:42:02.282Z,30.50
2023-03-07T07:45:11.896Z,28.53
2023-03-07T07:48:14.153Z,30.65
2023-03-07T07:51:16.968Z,27.73
2023-03-07T07:54:19.433Z,28.73
2023-03-07T07:57:23.653Z,31.35
2023-03-07T08:00:26.643Z,31.33
2023-03-07T08:03:28.942Z,30.90
2023-03-07T08:06:31.552Z,28.50
2023-03-07T08:09:35.234Z,29.60
2023-03-07T08:12:37.718Z,26.63
2023-03-07T08:15:41.112Z,26.48
2023-03-07T08:18:48.165Z,30.05
2023-03-07T08:21:50.418Z,28.60
2023-03-07T08:24:52.789Z,28.20
2023-03-07T08:27:55.254Z,27.60
2023-03-07T08:30:57.614Z,30.67
2023-03-07T08:33:59.812Z,28.85
2023-03-07T08:37:02.012Z,30.02
2023-03-07T08:40:04.611Z,29.00
2023-03-07T08:43:06.975Z,29.17
2023-03-07T08:46:09.225Z,24.98
2023-03-07T08:49:11.488Z,29.85
2023-03-07T08:52:13.917Z,28.92
2023-03-07T08:55:17.024Z,30.73
2023-03-07T08:58:19.335Z,27.30
2023-03-07T09:01:22.089Z,25.35
2023-03-07T09:04:24.874Z,24.38
2023-03-07T09:07:28.176Z,27.75
2023-03-07T09:10:30.393Z,22.95
2023-03-07T09:13:36.190Z,28.80
2023-03-07T09:16:42.729Z,26.30
2023-03-07T09:19:44.898Z,26.73
2023-03-07T09:22:47.180Z,27.40
2023-03-07T09:25:49.537Z,27.25
2023-03-07T09:28:51.746Z,25.08
2023-03-07T09:31:54.487Z,25.67
2023-03-07T09:34:57.050Z,27.63
2023-03-07T09:37:59.429Z,26.40
2023-03-07T09:41:56.342Z,27.27
2023-03-07T09:45:16.477Z,23.27
2023-03-07T09:49:01.119Z,25.70
2023-03-07T09:52:04.318Z,24.58
2023-03-07T09:55:15.796Z,27.23
2023-03-07T09:58:23.563Z,24.63
2023-03-07T10:01:30.132Z,24.80
2023-03-07T10:04:59.666Z,25.75
2023-03-07T10:08:02.837Z,24.80
2023-03-07T10:11:53.336Z,26.60
2023-03-07T10:15:20.237Z,24.83
2023-03-07T10:18:37.412Z,22.48
2023-03-07T10:21:47.054Z,20.90
2023-03-07T10:24:55.120Z,22.27
2023-03-07T10:28:19.941Z,23.13
2023-03-07T10:31:30.529Z,23.67
2023-03-07T10:34:33.074Z,22.40
2023-03-07T10:37:51.294Z,22.95
2023-03-07T10:41:10.051Z,24.33
2023-03-07T10:44:19.040Z,18.42
2023-03-07T10:47:23.915Z,22.70
2023-03-07T10:51:08.908Z,21.30
2023-03-07T10:54:35.652Z,22.10
2023-03-07T10:57:37.883Z,21.27
2023-03-07T11:00:40.804Z,18.98
2023-03-07T11:03:54.248Z,21.80
2023-03-07T11:06:59.700Z,17.85
2023-03-07T11:10:23.150Z,20.55
2023-03-07T11:13:26.132Z,17.48
2023-03-07T11:16:28.347Z,18.92
2023-03-07T11:19:30.489Z,20.33
2023-03-07T11:22:35.844Z,17.25
2023-03-07T11:25:38.090Z,16.23
2023-03-07T11:28:41.612Z,15.05
2023-03-07T11:32:14.504Z,17.75
2023-03-07T11:35:22.748Z,18.73
2023-03-07T11:38:55.304Z,18.80
2023-03-07T11:42:04.061Z,13.80
2023-03-07T11:45:32.218Z,13.73
2023-03-07T11:49:18.700Z,17.10
2023-03-07T11:52:31.182Z,15.40
2023-03-07T11:55:44.463Z,15.52
2023-03-07T11:58:58.648Z,14.55
2023-03-07T12:02:06.474Z,14.63
2023-03-07T12:05:38.408Z,16.08
2023-03-07T12:09:07.947Z,13.15
2023-03-07T12:12:34.549Z,13.80
2023-03-07T12:15:41.773Z,12.70
2023-03-07T12:19:09.692Z,13.07
2023-03-07T12:22:29.028Z,14.23
2023-03-07T12:25:51.356Z,13.07
2023-03-07T12:29:06.343Z,13.93
2023-03-07T12:32:19.873Z,10.98
2023-03-07T12:35:26.766Z,9.73
2023-03-07T12:38:47.335Z,11.95
2023-03-07T12:41:52.992Z,11.48
2023-03-07T12:45:13.075Z,10.82
2023-03-07T12:48:38.002Z,9.85
2023-03-07T12:52:08.760Z,12.07
2023-03-07T12:55:34.825Z,13.40
2023-03-07T12:58:58.591Z,11.65
2023-03-07T13:02:11.896Z,10.70
2023-03-07T13:05:20.233Z,10.95
2023-03-07T13:08:24.552Z,10.48
2023-03-07T13:11:29.566Z,13.38
2023-03-07T13:14:49.356Z,11.18
2023-03-07T13:17:51.724Z,10.25
2023-03-07T13:21:14.547Z,12.00
2023-03-07T13:24:49.786Z,11.65
2023-03-07T13:27:52.855Z,11.68
2023-03-07T13:31:16.549Z,9.98
2023-03-07T13:34:55.584Z,10.48
2023-03-07T13:38:11.343Z,11.65
2023-03-07T13:41:14.071Z,11.02
2023-03-07T13:44:40.996Z,10.02
2023-03-07T13:47:44.911Z,9.52
2023-03-07T13:50:52.770Z,10.32
2023-03-07T13:54:04.590Z,10.18
2023-03-07T13:57:07.095Z,12.48
2023-03-07T14:00:38.214Z,10.70
2023-03-07T14:03:54.677Z,10.65
2023-03-07T14:06:59.757Z,10.60
2023-03-07T14:10:22.657Z,10.52
2023-03-07T14:13:56.349Z,10.15
2023-03-07T14:17:53.888Z,10.07
2023-03-07T14:20:59.882Z,10.23
2023-03-07T14:24:16.748Z,11.60
2023-03-07T14:27:18.854Z,12.55
2023-03-07T14:30:23.312Z,11.18
2023-03-07T14:33:38.062Z,12.07
2023-03-07T14:36:40.375Z,11.88
2023-03-07T14:40:01.961Z,12.15
2023-03-07T14:43:28.033Z,11.35
2023-03-07T14:46:49.017Z,12.38
2023-03-07T14:50:01.835Z,12.57
2023-03-07T14:53:12.199Z,11.77
2023-03-07T14:56:32.395Z,12.32
2023-03-07T15:02:36.920Z,11.68
2023-03-07T15:05:48.166Z,11.25
2023-03-07T17:02:17.385Z,5.13
2023-03-07T17:05:30.075Z,5.22
2023-03-07T17:08:32.269Z,5.53
2023-03-07T17:11:34.488Z,4.72
2023-03-07T17:14:36.840Z,5.82
2023-03-07T17:17:39.056Z,5.80
2023-03-07T17:20:41.837Z,4.82
2023-03-07T17:23:45.260Z,5.47
2023-03-07T17:26:48.917Z,4.63
2023-03-07T17:29:54.582Z,5.20
2023-03-07T17:32:57.881Z,4.40
2023-03-07T17:36:01.000Z,4.40
2023-03-07T17:39:03.358Z,4.40
2023-03-07T17:42:06.028Z,5.00
2023-03-07T17:45:10.640Z,5.45
2023-03-07T17:48:12.898Z,4.50
2023-03-07T17:51:15.205Z,4.60
2023-03-07T17:54:17.765Z,4.18
2023-03-07T17:57:20.697Z,4.35
2023-03-07T18:00:23.274Z,4.18
2023-03-07T18:03:25.597Z,4.13
2023-03-07T18:06:29.597Z,3.65
2023-03-07T18:09:33.261Z,4.20
2023-03-07T18:12:35.890Z,4.20
2023-03-07T18:15:38.070Z,3.60
2023-03-07T18:18:57.716Z,3.72
2023-03-07T18:22:01.413Z,3.53
2023-03-07T18:25:05.411Z,3.97
2023-03-07T18:28:08.149Z,3.75
2023-03-07T18:31:18.859Z,3.50
2023-03-07T18:34:21.385Z,3.90
2023-03-07T18:37:23.868Z,3.70
2023-03-07T18:40:26.269Z,3.70
2023-03-07T18:43:28.475Z,3.55
2023-03-07T18:46:32.389Z,3.30
2023-03-07T18:49:35.055Z,3.53
2023-03-07T18:52:37.243Z,3.47
2023-03-07T18:55:39.434Z,3.50
2023-03-07T18:58:42.656Z,3.25
2023-03-07T19:01:46.219Z,3.05
2023-03-07T19:04:48.454Z,3.90
2023-03-07T19:07:50.622Z,3.72
2023-03-07T19:10:52.762Z,3.22
2023-03-07T19:13:55.165Z,3.15
2023-03-07T19:16:57.416Z,3.40
2023-03-07T19:20:00.346Z,3.38
2023-03-07T19:23:02.531Z,3.28
2023-03-07T19:26:06.407Z,3.20
2023-03-07T19:29:09.884Z,3.70
2023-03-07T19:32:12.302Z,3.47
2023-03-07T19:35:14.592Z,3.53
2023-03-07T19:38:16.800Z,3.75
2023-03-07T19:41:23.942Z,4.03
2023-03-07T19:44:26.298Z,3.80
2023-03-07T19:47:28.739Z,3.38
2023-03-07T19:50:30.953Z,3.58
2023-03-07T19:53:33.106Z,3.85
2023-03-07T19:56:35.659Z,4.13
2023-03-07T19:59:37.857Z,3.95
2023-03-07T20:02:40.055Z,3.97
2023-03-07T20:05:43.890Z,3.92
2023-03-07T20:08:50.789Z,3.92
2023-03-07T20:11:53.082Z,4.13
2023-03-07T20:14:55.336Z,3.55
2023-03-07T20:17:58.468Z,3.83
2023-03-07T20:21:09.158Z,3.50
2023-03-07T20:24:12.928Z,4.15
2023-03-07T20:27:20.451Z,3.95
2023-03-07T20:30:22.816Z,3.60
2023-03-07T20:33:25.285Z,3.75
2023-03-07T20:36:32.781Z,4.32
2023-03-07T20:39:35.097Z,4.47
2023-03-07T20:42:37.382Z,4.07
2023-03-07T20:45:39.666Z,4.03
2023-03-07T20:48:43.320Z,3.90
2023-03-07T20:51:45.632Z,4.07
2023-03-07T20:54:47.735Z,3.83
2023-03-07T20:57:49.920Z,4.00
2023-03-07T21:00:53.321Z,4.35
2023-03-07T21:03:55.804Z,4.75
2023-03-07T21:06:58.133Z,4.45
2023-03-07T21:10:00.349Z,4.18
2023-03-07T21:13:02.411Z,4.53
2023-03-07T21:16:11.314Z,4.53
2023-03-07T21:19:13.870Z,4.82
2023-03-07T21:22:16.130Z,4.95
2023-03-07T21:25:18.231Z,5.22
2023-03-07T21:28:20.417Z,5.20
2023-03-07T21:31:28.421Z,4.57
2023-03-07T21:34:30.865Z,5.13
2023-03-07T21:37:35.357Z,4.93
2023-03-07T21:40:37.526Z,5.07
2023-03-07T21:43:40.215Z,5.07
2023-03-07T21:46:42.673Z,5.40
2023-03-07T21:49:44.772Z,5.10
2023-03-07T21:52:46.984Z,4.72
2023-03-07T21:56:13.532Z,4.88
2023-03-07T21:59:15.734Z,5.63
2023-03-07T22:02:17.895Z,5.65
2023-03-07T22:05:22.838Z,5.47
2023-03-07T22:08:25.037Z,5.18
2023-03-07T22:11:27.691Z,5.40
2023-03-07T22:14:29.980Z,5.40
2023-03-07T22:17:33.329Z,5.20
2023-03-07T22:20:37.832Z,4.90
2023-03-07T22:23:40.088Z,4.53
2023-03-07T22:26:42.330Z,4.75
2023-03-07T22:29:44.563Z,5.00
2023-03-07T22:32:46.753Z,5.65
2023-03-07T22:36:04.251Z,5.10
2023-03-07T22:39:07.520Z,5.10
2023-03-07T22:42:09.913Z,5.18
2023-03-07T22:45:12.365Z,5.20
2023-03-07T22:48:16.259Z,5.43
2023-03-07T22:51:18.712Z,4.97
2023-03-07T22:54:20.939Z,5.15
2023-03-07T22:57:23.211Z,4.78
2023-03-07T23:00:25.693Z,5.38
2023-03-07T23:03:30.069Z,5.43
2023-03-07T23:06:33.632Z,5.18
2023-03-07T23:09:35.866Z,4.63
2023-03-07T23:12:38.069Z,5.15
2023-03-07T23:15:42.550Z,4.90
2023-03-07T23:18:46.190Z,5.53
2023-03-07T23:21:48.409Z,5.07
2023-03-07T23:24:50.607Z,5.25
2023-03-07T23:27:52.740Z,5.38
2023-03-07T23:30:54.979Z,5.45
2023-03-07T23:33:59.556Z,5.97
2023-03-07T23:37:02.143Z,6.05
2023-03-07T23:40:05.243Z,5.80
2023-03-07T23:43:07.899Z,6.50
2023-03-07T23:46:10.117Z,6.18
2023-03-07T23:49:12.464Z,5.93
2023-03-07T23:52:14.633Z,7.03
2023-03-07T23:55:17.384Z,6.65
2023-03-07T23:58:19.584Z,6.97
